createdAt,value
2018-11-13T00:01:15.010Z,8.60
2018-11-13T00:03:43.196Z,7.90
2018-11-13T00:06:11.402Z,8.63
2018-11-13T00:08:39.659Z,8.37
2018-11-13T00:11:07.911Z,9.63
2018-11-13T00:13:36.107Z,9.60
2018-11-13T00:16:04.387Z,9.50
2018-11-13T00:18:33.481Z,8.90
2018-11-13T00:21:01.736Z,9.33
2018-11-13T00:23:29.996Z,9.70
2018-11-13T00:25:58.214Z,9.13
2018-11-13T00:28:26.463Z,8.13
2018-11-13T00:30:54.720Z,7.97
2018-11-13T00:33:22.998Z,8.40
2018-11-13T00:35:51.245Z,9.17
2018-11-13T00:38:19.533Z,8.67
2018-11-13T00:40:47.732Z,8.80
2018-11-13T00:43:15.900Z,8.50
2018-11-13T00:45:44.420Z,8.10
2018-11-13T00:48:12.397Z,8.27
2018-11-13T00:50:40.643Z,8.23
2018-11-13T00:53:08.777Z,8.77
2018-11-13T00:55:37.057Z,10.17
2018-11-13T00:58:05.284Z,10.37
2018-11-13T01:00:38.433Z,10.13
2018-11-13T01:03:06.640Z,11.93
2018-11-13T01:05:34.957Z,10.70
2018-11-13T01:08:03.116Z,10.67
2018-11-13T01:10:31.484Z,11.03
2018-11-13T01:12:59.796Z,11.40
2018-11-13T01:15:28.016Z,11.57
2018-11-13T01:17:56.267Z,11.27
2018-11-13T01:20:24.472Z,10.88
2018-11-13T01:22:52.698Z,11.60
2018-11-13T01:25:20.892Z,11.47
2018-11-13T01:27:49.093Z,12.07
2018-11-13T01:30:17.593Z,10.28
2018-11-13T01:32:46.210Z,12.10
2018-11-13T01:35:15.909Z,10.37
2018-11-13T01:37:44.145Z,9.97
2018-11-13T01:40:14.865Z,10.70
2018-11-13T01:42:43.317Z,10.70
2018-11-13T01:45:13.091Z,8.27
2018-11-13T01:47:41.449Z,9.27
2018-11-13T01:50:10.360Z,8.73
2018-11-13T01:52:38.875Z,9.20
2018-11-13T02:08:10.080Z,7.33
2018-11-13T02:10:38.731Z,5.83
2018-11-13T02:13:07.095Z,6.00
2018-11-13T02:15:35.384Z,6.70
2018-11-13T02:18:03.600Z,5.97
2018-11-13T02:20:31.804Z,5.40
2018-11-13T02:23:00.033Z,5.33
2018-11-13T02:25:28.306Z,5.13
2018-11-13T02:27:56.563Z,5.50
2018-11-13T02:30:24.751Z,5.23
2018-11-13T02:32:53.018Z,5.17
2018-11-13T02:35:21.349Z,4.83
2018-11-13T02:37:49.494Z,5.27
2018-11-13T02:40:17.756Z,5.17
2018-11-13T02:42:45.970Z,4.53
2018-11-13T02:45:16.261Z,4.83
2018-11-13T02:47:44.558Z,5.07
2018-11-13T02:50:15.821Z,4.43
2018-11-13T02:52:44.084Z,4.93
2018-11-13T02:55:12.796Z,5.40
2018-11-13T02:57:41.448Z,5.33
2018-11-13T03:00:11.391Z,5.23
2018-11-13T03:02:41.983Z,5.10
2018-11-13T03:05:12.549Z,4.50
2018-11-13T03:07:47.603Z,4.30
2018-11-13T03:10:17.105Z,3.63
2018-11-13T03:12:48.152Z,4.10
2018-11-13T03:15:17.546Z,3.83
2018-11-13T03:17:45.766Z,3.67
2018-11-13T03:20:16.309Z,3.43
2018-11-13T03:22:46.177Z,3.27
2018-11-13T03:25:16.553Z,3.55
2018-11-13T03:27:44.759Z,3.40
2018-11-13T03:30:15.673Z,3.27
2018-11-13T03:32:44.685Z,3.33
2018-11-13T03:35:12.903Z,3.70
2018-11-13T03:37:41.224Z,3.23
2018-11-13T03:40:10.170Z,3.08
2018-11-13T03:42:38.770Z,3.17
2018-11-13T03:45:08.200Z,2.87
2018-11-13T03:47:36.434Z,2.50
2018-11-13T03:50:05.252Z,2.77
2018-11-13T03:52:33.455Z,2.63
2018-11-13T03:55:01.694Z,2.60
2018-11-13T03:57:29.958Z,2.47
2018-11-13T03:59:58.265Z,2.47
2018-11-13T04:02:26.491Z,2.67
2018-11-13T04:04:54.696Z,2.60
2018-11-13T04:07:22.962Z,2.30
2018-11-13T04:09:51.175Z,2.40
2018-11-13T04:12:19.385Z,2.03
2018-11-13T04:14:47.644Z,2.23
2018-11-13T04:17:15.876Z,2.30
2018-11-13T04:19:44.126Z,2.33
2018-11-13T04:22:12.327Z,2.03
2018-11-13T04:24:41.291Z,1.87
2018-11-13T04:27:09.538Z,2.17
2018-11-13T04:29:37.778Z,2.05
2018-11-13T04:32:06.001Z,2.10
2018-11-13T04:34:34.235Z,2.10
2018-11-13T04:37:02.485Z,1.83
2018-11-13T04:39:30.683Z,1.90
2018-11-13T04:41:58.874Z,1.67
2018-11-13T04:44:27.083Z,1.90
2018-11-13T04:46:55.356Z,1.87
2018-11-13T04:49:23.598Z,1.50
2018-11-13T04:51:51.814Z,1.60
2018-11-13T04:54:19.988Z,1.75
2018-11-13T04:56:48.300Z,1.80
2018-11-13T04:59:17.372Z,1.42
2018-11-13T05:01:45.877Z,1.50
2018-11-13T05:04:14.110Z,1.73
2018-11-13T05:06:42.896Z,1.53
2018-11-13T05:09:11.090Z,1.50
2018-11-13T05:11:39.352Z,1.50
2018-11-13T05:14:07.589Z,1.57
2018-11-13T05:16:35.805Z,1.70
2018-11-13T05:19:04.065Z,1.67
2018-11-13T05:21:32.251Z,1.70
2018-11-13T05:24:00.460Z,1.60
2018-11-13T05:26:28.714Z,1.40
2018-11-13T05:28:56.934Z,1.32
2018-11-13T05:31:25.144Z,1.40
2018-11-13T05:33:53.359Z,1.10
2018-11-13T05:36:21.605Z,1.40
2018-11-13T05:38:49.881Z,1.45
2018-11-13T05:41:18.066Z,1.30
2018-11-13T05:43:46.299Z,1.32
2018-11-13T05:46:14.586Z,1.30
2018-11-13T05:48:43.052Z,1.35
2018-11-13T05:51:11.311Z,1.23
2018-11-13T05:53:39.573Z,1.32
2018-11-13T05:56:07.755Z,1.40
2018-11-13T05:58:36.027Z,1.33
2018-11-13T06:01:04.290Z,1.30
2018-11-13T06:03:32.565Z,1.37
2018-11-13T06:06:00.759Z,1.40
2018-11-13T06:08:28.982Z,1.50
2018-11-13T06:10:57.220Z,1.52
2018-11-13T06:13:25.455Z,1.70
2018-11-13T06:15:53.627Z,1.40
2018-11-13T06:18:21.867Z,1.25
2018-11-13T06:20:50.077Z,1.40
2018-11-13T06:23:18.335Z,1.30
2018-11-13T06:25:46.526Z,1.33
2018-11-13T06:28:14.767Z,1.45
2018-11-13T06:30:43.101Z,1.40
2018-11-13T06:33:11.303Z,1.55
2018-11-13T06:35:39.521Z,1.47
2018-11-13T06:38:07.740Z,1.57
2018-11-13T06:40:36.008Z,1.60
2018-11-13T06:43:04.271Z,1.32
2018-11-13T06:45:32.515Z,1.40
2018-11-13T06:48:00.724Z,1.40
2018-11-13T06:50:28.919Z,1.60
2018-11-13T06:52:57.116Z,1.60
2018-11-13T06:55:27.124Z,1.57
2018-11-13T06:57:55.324Z,2.07
2018-11-13T07:00:23.534Z,1.83
2018-11-13T07:02:51.835Z,2.08
2018-11-13T07:05:20.163Z,1.67
2018-11-13T07:07:48.503Z,1.80
2018-11-13T07:10:18.052Z,1.90
2018-11-13T07:12:47.818Z,1.80
2018-11-13T07:15:19.214Z,1.80
2018-11-13T07:17:48.776Z,1.90
2018-11-13T07:20:18.365Z,1.57
2018-11-13T07:22:47.679Z,1.57
2018-11-13T07:25:15.935Z,1.57
2018-11-13T07:27:44.767Z,1.87
2018-11-13T07:30:14.255Z,1.85
2018-11-13T07:32:42.816Z,1.60
2018-11-13T07:35:13.143Z,1.32
2018-11-13T07:37:43.790Z,1.60
2018-11-13T07:40:12.027Z,1.75
2018-11-13T07:42:40.249Z,1.53
2018-11-13T07:45:10.502Z,1.40
2018-11-13T07:47:39.059Z,1.30
2018-11-13T07:50:08.253Z,1.50
2018-11-13T07:52:36.569Z,1.17
2018-11-13T07:55:04.952Z,1.33
2018-11-13T07:57:33.160Z,1.40
2018-11-13T08:00:01.379Z,1.10
2018-11-13T08:02:29.609Z,1.10
2018-11-13T08:04:57.894Z,1.57
2018-11-13T08:07:26.168Z,1.10
2018-11-13T08:09:54.499Z,1.30
2018-11-13T08:12:22.738Z,1.30
2018-11-13T08:14:53.068Z,1.17
2018-11-13T08:17:21.293Z,1.37
2018-11-13T08:19:49.535Z,0.93
2018-11-13T08:22:17.848Z,1.00
2018-11-13T08:24:46.089Z,0.87
2018-11-13T08:27:14.303Z,0.90
2018-11-13T08:29:43.434Z,1.17
2018-11-13T08:32:11.627Z,0.90
2018-11-13T08:34:39.881Z,0.70
2018-11-13T08:37:08.175Z,0.87
2018-11-13T08:39:36.379Z,0.90
2018-11-13T08:42:04.900Z,0.53
2018-11-13T08:44:33.121Z,0.70
2018-11-13T08:47:01.327Z,0.60
2018-11-13T08:49:29.528Z,0.77
2018-11-13T08:51:57.755Z,0.70
2018-11-13T08:54:25.976Z,0.70
2018-11-13T08:56:54.206Z,0.77
2018-11-13T08:59:24.440Z,0.70
2018-11-13T09:01:52.784Z,0.80
2018-11-13T09:04:20.986Z,0.80
2018-11-13T09:06:49.395Z,0.97
2018-11-13T09:09:17.623Z,0.90
2018-11-13T09:11:45.974Z,0.70
2018-11-13T09:14:14.200Z,0.60
2018-11-13T09:16:42.420Z,0.50
2018-11-13T09:19:10.845Z,0.63
2018-11-13T09:21:39.001Z,0.60
2018-11-13T09:24:07.141Z,0.70
2018-11-13T09:26:35.375Z,0.70
2018-11-13T09:29:03.614Z,0.43
2018-11-13T09:31:31.909Z,0.60
2018-11-13T09:34:00.062Z,0.60
2018-11-13T09:36:28.314Z,0.60
2018-11-13T09:38:56.587Z,0.63
2018-11-13T09:41:24.792Z,0.70
2018-11-13T09:43:53.072Z,0.70
2018-11-13T09:46:21.332Z,0.80
2018-11-13T09:48:49.506Z,0.80
2018-11-13T09:51:18.095Z,0.80
2018-11-13T09:53:46.434Z,0.70
2018-11-13T09:56:14.627Z,1.00
2018-11-13T09:58:42.871Z,0.50
2018-11-13T10:01:11.438Z,0.83
2018-11-13T10:03:39.924Z,1.10
2018-11-13T10:06:07.532Z,0.50
2018-11-13T10:08:35.796Z,0.93
2018-11-13T10:11:04.064Z,0.80
2018-11-13T10:13:32.319Z,0.63
2018-11-13T10:16:00.537Z,0.63
2018-11-13T10:18:28.810Z,0.77
2018-11-13T10:20:57.740Z,1.00
2018-11-13T10:23:25.999Z,0.90
2018-11-13T10:25:54.224Z,0.70
2018-11-13T10:28:22.438Z,1.00
2018-11-13T10:30:50.685Z,0.90
2018-11-13T10:33:18.953Z,1.00
2018-11-13T10:35:47.172Z,0.70
2018-11-13T10:38:15.402Z,0.90
2018-11-13T10:40:43.824Z,0.80
2018-11-13T10:43:13.152Z,0.77
2018-11-13T10:45:41.363Z,0.60
2018-11-13T10:48:09.603Z,1.07
2018-11-13T10:50:37.841Z,0.80
2018-11-13T10:53:06.090Z,0.90
2018-11-13T10:55:34.329Z,0.90
2018-11-13T10:58:02.591Z,0.90
2018-11-13T11:00:36.340Z,1.00
2018-11-13T11:03:06.451Z,0.90
2018-11-13T11:05:34.629Z,0.97
2018-11-13T11:08:02.848Z,0.83
2018-11-13T11:10:31.091Z,0.93
2018-11-13T11:12:59.818Z,0.70
2018-11-13T11:15:27.902Z,0.90
2018-11-13T11:17:56.205Z,1.07
2018-11-13T11:20:24.377Z,0.90
2018-11-13T11:22:52.695Z,1.03
2018-11-13T11:25:20.970Z,0.93
2018-11-13T11:27:49.105Z,0.80
2018-11-13T11:30:17.294Z,1.03
2018-11-13T11:32:45.515Z,0.70
2018-11-13T11:35:13.717Z,0.73
2018-11-13T11:37:42.295Z,0.70
2018-11-13T11:40:11.344Z,0.83
2018-11-13T11:42:39.570Z,0.67
2018-11-13T11:45:11.196Z,0.70
2018-11-13T11:47:39.394Z,1.10
2018-11-13T11:50:08.386Z,0.70
2018-11-13T11:52:36.668Z,1.13
2018-11-13T11:55:06.208Z,0.90
2018-11-13T11:57:34.426Z,1.13
2018-11-13T12:00:02.618Z,0.80
2018-11-13T12:02:30.935Z,0.90
2018-11-13T12:04:59.959Z,0.70
2018-11-13T12:07:28.167Z,0.70
2018-11-13T12:09:56.392Z,0.70
2018-11-13T12:12:24.659Z,1.00
2018-11-13T12:14:52.798Z,0.73
2018-11-13T12:17:21.015Z,1.13
2018-11-13T12:19:49.227Z,1.00
2018-11-13T12:22:17.451Z,0.87
2018-11-13T12:24:45.699Z,0.67
2018-11-13T12:27:14.018Z,1.47
2018-11-13T12:29:42.848Z,0.70
2018-11-13T12:32:11.050Z,0.67
2018-11-13T12:34:39.277Z,0.87
2018-11-13T12:37:07.548Z,0.87
2018-11-13T12:39:35.759Z,0.80
2018-11-13T12:42:04.037Z,0.90
2018-11-13T12:44:32.234Z,0.83
2018-11-13T12:47:01.474Z,0.90
2018-11-13T12:49:29.757Z,0.97
2018-11-13T12:52:03.402Z,0.80
2018-11-13T12:54:31.658Z,0.73
2018-11-13T12:57:00.202Z,0.73
2018-11-13T12:59:29.751Z,0.80
2018-11-13T13:01:58.070Z,0.83
2018-11-13T13:04:26.247Z,0.93
2018-11-13T13:06:54.461Z,1.10
2018-11-13T13:09:22.647Z,0.83
2018-11-13T13:11:51.697Z,0.90
2018-11-13T13:14:19.890Z,0.80
2018-11-13T13:16:48.103Z,0.80
2018-11-13T13:19:16.343Z,1.10
2018-11-13T13:21:44.605Z,0.80
2018-11-13T13:24:12.750Z,0.80
2018-11-13T13:26:40.942Z,0.80
2018-11-13T13:29:09.207Z,0.80
2018-11-13T13:31:37.474Z,0.70
2018-11-13T13:34:05.685Z,0.70
2018-11-13T13:36:33.882Z,0.80
2018-11-13T13:39:02.535Z,0.70
2018-11-13T13:41:30.805Z,0.80
2018-11-13T13:43:59.038Z,0.70
2018-11-13T13:46:27.247Z,0.90
2018-11-13T13:48:55.418Z,0.87
2018-11-13T13:51:23.638Z,0.87
2018-11-13T13:53:51.987Z,0.80
2018-11-13T13:56:20.090Z,0.70
2018-11-13T13:58:48.285Z,0.90
2018-11-13T14:01:16.519Z,0.63
2018-11-13T14:03:44.871Z,0.80
2018-11-13T14:06:13.255Z,0.63
2018-11-13T14:08:41.590Z,0.80
2018-11-13T14:11:09.888Z,0.70
2018-11-13T14:13:38.174Z,0.83
2018-11-13T14:16:06.731Z,0.60
2018-11-13T14:18:35.014Z,0.73
2018-11-13T14:21:03.468Z,1.20
2018-11-13T14:23:31.698Z,0.80
2018-11-13T14:25:59.893Z,0.90
2018-11-13T14:28:28.074Z,1.00
2018-11-13T14:30:56.352Z,0.90
2018-11-13T14:33:25.026Z,0.57
2018-11-13T14:35:53.219Z,0.80
2018-11-13T14:38:21.435Z,1.10
2018-11-13T14:40:49.846Z,0.70
2018-11-13T14:43:18.087Z,1.07
2018-11-13T14:45:46.657Z,0.90
2018-11-13T14:48:14.846Z,0.80
2018-11-13T14:50:43.539Z,0.90
2018-11-13T14:53:12.317Z,0.73
2018-11-13T14:55:42.399Z,0.90
2018-11-13T14:58:11.906Z,0.97
2018-11-13T15:00:40.478Z,0.80
2018-11-13T15:03:11.685Z,1.03
2018-11-13T15:05:39.911Z,0.90
2018-11-13T15:08:08.984Z,1.00
2018-11-13T15:10:42.035Z,1.20
2018-11-13T15:13:11.899Z,0.80
2018-11-13T15:15:40.170Z,0.87
2018-11-13T15:18:08.658Z,0.63
2018-11-13T15:20:37.150Z,0.70
2018-11-13T15:23:08.178Z,0.60
2018-11-13T15:25:36.437Z,1.10
2018-11-13T15:28:05.034Z,0.80
2018-11-13T15:30:34.367Z,1.07
2018-11-13T15:33:05.943Z,1.30
2018-11-13T15:35:34.139Z,0.60
2018-11-13T15:38:02.382Z,0.70
2018-11-13T15:40:30.923Z,0.60
2018-11-13T15:42:59.134Z,0.97
2018-11-13T15:45:27.310Z,0.80
2018-11-13T15:47:56.515Z,1.10
2018-11-13T15:50:26.088Z,0.70
2018-11-13T15:52:54.376Z,0.87
2018-11-13T15:55:22.592Z,1.10
2018-11-13T15:57:50.866Z,1.00
2018-11-13T16:00:29.765Z,0.67
2018-11-13T16:02:59.210Z,0.97
2018-11-13T16:05:37.327Z,0.80
2018-11-13T16:08:06.453Z,0.73
2018-11-13T16:10:34.700Z,1.13
2018-11-13T16:13:02.950Z,0.90
2018-11-13T16:15:31.793Z,1.27
2018-11-13T16:18:01.434Z,0.90
2018-11-13T16:20:29.662Z,0.87
2018-11-13T16:22:57.826Z,0.90
2018-11-13T16:25:26.668Z,1.10
2018-11-13T16:27:54.860Z,0.87
2018-11-13T16:30:24.510Z,0.93
2018-11-13T16:32:53.006Z,0.97
2018-11-13T16:35:22.211Z,0.97
2018-11-13T16:37:51.023Z,0.80
2018-11-13T16:40:23.477Z,1.20
2018-11-13T16:42:51.725Z,0.87
2018-11-13T16:45:21.146Z,1.00
2018-11-13T16:47:49.419Z,1.10
2018-11-13T16:50:36.143Z,0.97
2018-11-13T16:53:04.728Z,1.97
2018-11-13T16:55:38.258Z,1.37
2018-11-13T16:58:07.659Z,0.80
2018-11-13T17:00:35.962Z,0.80
2018-11-13T17:03:04.082Z,0.93
2018-11-13T17:05:32.490Z,1.10
2018-11-13T17:08:00.633Z,1.30
2018-11-13T17:10:30.168Z,1.63
2018-11-13T17:12:58.971Z,1.17
2018-11-13T17:15:28.428Z,1.33
2018-11-13T17:17:57.738Z,1.50
2018-11-13T17:20:25.922Z,1.37
2018-11-13T17:22:54.120Z,1.80
2018-11-13T17:25:23.802Z,1.53
2018-11-13T17:27:53.055Z,2.83
2018-11-13T17:30:27.463Z,1.70
2018-11-13T17:32:56.686Z,1.40
2018-11-13T17:35:25.815Z,1.23
2018-11-13T17:37:54.798Z,1.30
2018-11-13T17:40:24.302Z,1.67
2018-11-13T17:42:53.890Z,1.27
2018-11-13T17:45:26.495Z,1.93
2018-11-13T17:47:54.718Z,1.80
2018-11-13T17:50:25.502Z,1.30
2018-11-13T17:52:53.763Z,1.20
2018-11-13T17:55:22.447Z,1.67
2018-11-13T17:57:52.042Z,2.20
2018-11-13T18:00:30.788Z,2.67
2018-11-13T18:02:59.246Z,2.57
2018-11-13T18:05:27.990Z,3.47
2018-11-13T18:07:57.393Z,2.70
2018-11-13T18:10:26.386Z,3.13
2018-11-13T18:12:54.804Z,3.87
2018-11-13T18:15:24.460Z,2.57
2018-11-13T18:17:52.710Z,3.77
2018-11-13T18:20:22.458Z,3.13
2018-11-13T18:22:50.770Z,2.50
2018-11-13T18:25:19.421Z,1.30
2018-11-13T18:27:48.958Z,1.90
2018-11-13T18:30:22.278Z,1.80
2018-11-13T18:32:50.876Z,1.67
2018-11-13T18:35:20.578Z,1.37
2018-11-13T18:37:49.391Z,2.10
2018-11-13T18:40:18.564Z,7.93
2018-11-13T18:42:47.873Z,7.13
2018-11-13T18:45:19.134Z,7.00
2018-11-13T18:47:47.398Z,4.60
2018-11-13T18:50:17.609Z,3.30
2018-11-13T18:52:45.755Z,3.20
2018-11-13T18:55:14.739Z,2.20
2018-11-13T18:57:43.228Z,2.70
2018-11-13T19:00:34.985Z,2.60
2018-11-13T19:03:04.175Z,2.37
2018-11-13T19:05:32.953Z,2.07
2018-11-13T19:08:01.139Z,3.02
2018-11-13T19:10:37.783Z,2.70
2018-11-13T19:13:07.825Z,2.45
2018-11-13T19:15:37.482Z,2.20
2018-11-13T19:18:06.679Z,1.90
2018-11-13T19:20:34.853Z,2.42
2018-11-13T19:23:03.202Z,3.65
2018-11-13T19:25:33.495Z,3.40
2018-11-13T19:28:02.024Z,3.58
2018-11-13T19:30:30.219Z,2.33
2018-11-13T19:32:58.428Z,2.70
2018-11-13T19:35:26.892Z,2.08
2018-11-13T19:37:55.053Z,1.55
2018-11-13T19:40:25.439Z,1.98
2018-11-13T19:42:54.471Z,1.77
2018-11-13T19:45:22.842Z,2.00
2018-11-13T19:47:51.167Z,2.08
2018-11-13T19:50:20.802Z,1.55
2018-11-13T19:52:49.004Z,2.10
2018-11-13T19:55:18.147Z,1.65
2018-11-13T19:57:46.761Z,1.52
2018-11-13T20:00:26.767Z,1.67
2018-11-13T20:02:55.895Z,1.77
2018-11-13T20:05:24.471Z,2.37
2018-11-13T20:07:52.670Z,2.22
2018-11-13T20:10:23.011Z,2.17
2018-11-13T20:12:52.095Z,1.82
2018-11-13T20:15:23.762Z,1.75
2018-11-13T20:17:51.963Z,2.10
2018-11-13T20:20:21.501Z,1.80
2018-11-13T20:22:50.295Z,1.75
2018-11-13T20:25:20.363Z,1.62
2018-11-13T20:27:48.589Z,1.95
2018-11-13T20:30:21.454Z,1.95
2018-11-13T20:32:49.670Z,1.60
2018-11-13T20:35:18.015Z,1.62
2018-11-13T20:37:47.277Z,1.55
2018-11-13T20:40:16.863Z,1.45
2018-11-13T20:42:46.058Z,2.25
2018-11-13T20:45:14.272Z,1.67
2018-11-13T20:47:42.514Z,1.70
2018-11-13T20:50:12.589Z,1.90
2018-11-13T20:52:40.827Z,1.80
2018-11-13T20:55:09.358Z,1.35
2018-11-13T20:57:37.762Z,1.80
2018-11-13T21:00:09.490Z,1.80
2018-11-13T21:02:37.834Z,1.67
2018-11-13T21:05:06.938Z,1.80
2018-11-13T21:07:35.665Z,1.67
2018-11-13T21:10:04.463Z,2.00
2018-11-13T21:12:32.647Z,1.50
2018-11-13T21:15:00.855Z,1.72
2018-11-13T21:17:29.167Z,2.23
2018-11-13T21:19:57.266Z,1.67
2018-11-13T21:22:25.470Z,1.43
2018-11-13T21:24:53.681Z,1.35
2018-11-13T21:27:22.219Z,1.62
2018-11-13T21:29:51.195Z,1.30
2018-11-13T21:32:19.426Z,1.62
2018-11-13T21:34:47.630Z,1.07
2018-11-13T21:37:15.918Z,1.42
2018-11-13T21:39:44.070Z,1.45
2018-11-13T21:42:12.243Z,1.60
2018-11-13T21:44:40.574Z,1.50
2018-11-13T21:47:08.760Z,1.40
2018-11-13T21:49:37.012Z,1.37
2018-11-13T21:52:05.606Z,1.70
2018-11-13T21:54:33.839Z,1.70
2018-11-13T21:57:02.051Z,1.70
2018-11-13T21:59:31.931Z,1.42
2018-11-13T22:02:00.199Z,1.50
2018-11-13T22:04:28.410Z,1.80
2018-11-13T22:06:56.618Z,1.33
2018-11-13T22:09:26.756Z,1.47
2018-11-13T22:11:55.011Z,1.40
2018-11-13T22:14:23.189Z,1.27
2018-11-13T22:16:51.487Z,1.23
2018-11-13T22:19:19.675Z,1.57
2018-11-13T22:21:47.890Z,1.35
2018-11-13T22:24:16.118Z,1.37
2018-11-13T22:26:44.340Z,1.60
2018-11-13T22:29:13.026Z,1.32
2018-11-13T22:31:41.192Z,1.30
2018-11-13T22:34:09.449Z,1.40
2018-11-13T22:36:37.616Z,1.30
2018-11-13T22:39:07.330Z,1.12
2018-11-13T22:41:35.570Z,1.70
2018-11-13T22:44:03.755Z,1.50
2018-11-13T22:46:31.959Z,1.50
2018-11-13T22:49:00.139Z,1.70
2018-11-13T22:51:30.299Z,1.60
2018-11-13T22:53:58.474Z,1.25
2018-11-13T22:56:26.683Z,1.20
2018-11-13T22:58:54.915Z,1.22
2018-11-13T23:01:23.082Z,1.40
2018-11-13T23:03:51.311Z,1.25
2018-11-13T23:06:19.615Z,1.30
2018-11-13T23:08:47.839Z,1.25
2018-11-13T23:11:16.030Z,1.47
2018-11-13T23:13:44.239Z,1.27
2018-11-13T23:16:12.435Z,1.30
2018-11-13T23:18:40.704Z,1.27
2018-11-13T23:21:08.910Z,1.40
2018-11-13T23:23:37.654Z,1.30
2018-11-13T23:26:05.847Z,1.23
2018-11-13T23:28:34.031Z,1.20
2018-11-13T23:31:02.229Z,1.43
2018-11-13T23:33:32.055Z,1.25
2018-11-13T23:36:00.377Z,1.07
2018-11-13T23:38:28.465Z,1.47
2018-11-13T23:40:56.666Z,1.20
2018-11-13T23:43:24.876Z,1.55
2018-11-13T23:45:53.089Z,1.25
2018-11-13T23:48:21.271Z,1.50
2018-11-13T23:50:55.182Z,1.53
2018-11-13T23:53:23.426Z,1.32
2018-11-13T23:55:51.753Z,1.30
2018-11-13T23:58:19.943Z,1.10
